Time;durP1;ratioP1;P1;durP2;ratioP2;P2;SDS_P1;SDS_P2;PMS_P1;PMS_P2;Temp;Humidity;BMP_temperature;BMP_pressure;BME280_temperature;BME280_humidity;BME280_pressure;Samples;Min_cycle;Max_cycle;Signal;HPM_P1;HPM_P2
2021/03/09 00:00:22;;;;;;;18.35;13.38;;;;;;;-2.27;100.00;96083.31;1019829;29;20500;-49
2021/03/09 00:00:55;;;;;;;23.58;14.75;;;;;;;-2.26;100.00;96091.84;1020162;29;20544;-48
2021/03/09 00:01:26;;;;;;;21.10;14.95;;;;;;;-2.25;100.00;96088.41;1016488;29;20016;-48
2021/03/09 00:01:57;;;;;;;19.36;14.82;;;;;;;-2.26;100.00;96085.00;1019884;28;20252;-47
2021/03/09 00:02:28;;;;;;;20.06;14.24;;;;;;;-2.27;100.00;96083.31;1023729;29;20027;-49
2021/03/09 00:02:59;;;;;;;22.48;14.30;;;;;;;-2.29;100.00;96085.06;1015952;29;20024;-48
2021/03/09 00:03:29;;;;;;;23.26;15.58;;;;;;;-2.31;100.00;96079.09;1019697;29;20032;-49
2021/03/09 00:04:00;;;;;;;23.05;15.52;;;;;;;-2.31;100.00;96080.81;1020915;29;20027;-48
2021/03/09 00:04:31;;;;;;;22.17;15.15;;;;;;;-2.32;100.00;96082.56;1022045;29;20016;-49
2021/03/09 00:05:03;;;;;;;20.70;14.52;;;;;;;-2.43;100.00;96071.63;1026494;29;20019;-50
2021/03/09 00:05:33;;;;;;;19.85;14.88;;;;;;;-2.36;100.00;96078.34;1018436;29;20024;-49
2021/03/09 00:06:04;;;;;;;18.13;14.50;;;;;;;-2.37;100.00;96086.91;1022116;29;20248;-49
2021/03/09 00:06:35;;;;;;;21.77;15.50;;;;;;;-2.37;100.00;96080.03;1018311;29;20030;-49
2021/03/09 00:07:05;;;;;;;21.75;15.00;;;;;;;-2.38;100.00;96083.50;1015083;29;20024;-50
2021/03/09 00:07:36;;;;;;;18.83;13.95;;;;;;;-2.38;100.00;96080.09;1014924;29;20031;-49
2021/03/09 00:08:07;;;;;;;21.83;15.30;;;;;;;-2.40;100.00;96080.13;1015055;29;20024;-48
2021/03/09 00:08:37;;;;;;;23.05;16.48;;;;;;;-2.39;100.00;96075.81;1014924;29;20096;-50
2021/03/09 00:09:08;;;;;;;20.65;14.93;;;;;;;-2.55;100.00;96053.00;1022945;29;20024;-50
2021/03/09 00:09:39;;;;;;;22.27;15.63;;;;;;;-2.41;100.00;96080.16;1022778;29;20433;-49
2021/03/09 00:10:11;;;;;;;20.17;15.65;;;;;;;-2.41;100.00;96082.72;1023838;29;20478;-49
2021/03/09 00:10:41;;;;;;;21.42;15.34;;;;;;;-2.41;100.00;96077.56;1023690;29;20030;-47
2021/03/09 00:11:12;;;;;;;19.35;14.65;;;;;;;-2.42;100.00;96073.31;1015992;29;20035;-49
2021/03/09 00:11:43;;;;;;;21.30;16.10;;;;;;;-2.48;100.00;96071.69;1019701;29;20019;-46
2021/03/09 00:12:13;;;;;;;18.65;14.60;;;;;;;-2.45;100.00;96075.94;1023434;29;20019;-48
2021/03/09 00:12:44;;;;;;;19.98;14.70;;;;;;;-2.44;100.00;96075.06;1015808;29;20012;-47
2021/03/09 00:13:15;;;;;;;20.10;15.02;;;;;;;-2.44;100.00;96082.75;1015779;29;20107;-48
2021/03/09 00:13:45;;;;;;;22.80;15.82;;;;;;;-2.45;100.00;96075.94;1011839;29;20031;-47
2021/03/09 00:14:16;;;;;;;22.75;15.68;;;;;;;-2.47;100.00;96072.56;1023749;29;20110;-48
2021/03/09 00:14:47;;;;;;;22.02;15.30;;;;;;;-2.49;100.00;96066.63;1015997;29;20549;-47
2021/03/09 00:15:18;;;;;;;21.98;16.02;;;;;;;-2.45;100.00;96074.22;1019758;29;20057;-48
2021/03/09 00:15:49;;;;;;;18.77;14.50;;;;;;;-2.47;100.00;96073.41;1015917;29;20068;-48
2021/03/09 00:16:20;;;;;;;23.23;15.32;;;;;;;-2.48;100.00;96071.69;1019742;29;20016;-47
2021/03/09 00:16:50;;;;;;;19.50;15.05;;;;;;;-2.48;100.00;96076.81;1023788;28;20270;-49
2021/03/09 00:17:21;;;;;;;20.67;15.73;;;;;;;-2.49;100.00;96076.88;1027743;28;20081;-47
2021/03/09 00:17:52;;;;;;;21.06;15.80;;;;;;;-2.49;100.00;96080.28;1023732;29;20496;-48
2021/03/09 00:18:23;;;;;;;22.02;16.08;;;;;;;-2.49;100.00;96075.16;1027656;28;20018;-49
2021/03/09 00:18:53;;;;;;;21.25;15.40;;;;;;;-2.48;100.00;96073.41;1019912;29;20029;-48
2021/03/09 00:19:24;;;;;;;21.50;16.08;;;;;;;-2.49;100.00;96076.88;1015725;29;20383;-48
2021/03/09 00:19:55;;;;;;;21.23;16.40;;;;;;;-2.57;100.00;96070.16;1011960;29;20028;-46
2021/03/09 00:20:26;;;;;;;22.27;16.35;;;;;;;-2.52;100.00;96074.34;1011979;29;20168;-50
2021/03/09 00:20:57;;;;;;;23.75;15.98;;;;;;;-2.50;100.00;96072.59;1008114;29;20436;-48
2021/03/09 00:21:28;;;;;;;21.05;15.48;;;;;;;-2.51;100.00;96076.06;1015756;29;20023;-48
2021/03/09 00:21:59;;;;;;;19.58;15.30;;;;;;;-2.53;100.00;96068.38;1015816;29;20020;-46
2021/03/09 00:22:29;;;;;;;19.98;15.43;;;;;;;-2.55;100.00;96068.41;1019619;29;20406;-48
2021/03/09 00:23:00;;;;;;;23.05;16.52;;;;;;;-2.57;100.00;96077.84;1015778;29;20091;-48
2021/03/09 00:23:31;;;;;;;22.98;15.80;;;;;;;-2.58;100.00;96067.59;1011704;29;20429;-48
2021/03/09 00:24:02;;;;;;;22.00;15.60;;;;;;;-2.64;100.00;96067.72;1019723;29;20032;-48
2021/03/09 00:24:32;;;;;;;19.90;15.95;;;;;;;-2.60;100.00;96067.63;1008061;29;20108;-49
2021/03/09 00:25:04;;;;;;;25.33;17.15;;;;;;;-2.61;100.00;96081.34;1011975;29;20024;-47
2021/03/09 00:25:34;;;;;;;21.22;15.16;;;;;;;-2.61;100.00;96077.91;1007948;29;20028;-48
2021/03/09 00:26:05;;;;;;;23.08;16.30;;;;;;;-2.62;100.00;96078.78;1015818;29;20028;-50
2021/03/09 00:26:36;;;;;;;22.58;16.20;;;;;;;-2.62;100.00;96077.06;1015827;29;20035;-48
2021/03/09 00:27:09;;;;;;;22.25;17.13;;;;;;;-2.62;100.00;96079.63;1011975;29;20568;-48
2021/03/09 00:27:40;;;;;;;22.56;17.34;;;;;;;-2.62;100.00;96074.50;1016203;29;20059;-48
2021/03/09 00:28:11;;;;;;;23.38;17.10;;;;;;;-2.60;100.00;96071.91;1027718;28;20097;-49
2021/03/09 00:28:41;;;;;;;21.65;17.13;;;;;;;-2.59;100.00;96077.03;1019742;29;20103;-48
2021/03/09 00:29:12;;;;;;;26.60;17.10;;;;;;;-2.60;100.00;96071.91;1015805;29;20051;-48
2021/03/09 00:29:43;;;;;;;22.50;17.83;;;;;;;-2.60;100.00;96083.00;1019617;29;20024;-49
2021/03/09 00:30:15;;;;;;;23.10;17.30;;;;;;;-2.60;100.00;96079.63;1012002;29;20056;-48
2021/03/09 00:30:46;;;;;;;26.64;17.60;;;;;;;-2.61;100.00;96076.22;1012244;29;20028;-47
2021/03/09 00:31:17;;;;;;;23.26;16.56;;;;;;;-2.62;100.00;96083.91;1012007;29;20063;-47
2021/03/09 00:31:48;;;;;;;22.83;16.98;;;;;;;-2.63;100.00;96077.09;1011747;29;20026;-47
2021/03/09 00:32:19;;;;;;;25.06;17.82;;;;;;;-2.65;100.00;96076.28;1015839;29;20024;-48
2021/03/09 00:32:50;;;;;;;24.38;17.05;;;;;;;-2.63;100.00;96072.81;1015647;29;20039;-48
2021/03/09 00:33:21;;;;;;;23.27;17.15;;;;;;;-2.63;100.00;96075.38;1015854;29;20571;-50
2021/03/09 00:33:52;;;;;;;22.98;17.34;;;;;;;-2.64;100.00;96073.69;1015471;29;20020;-48
2021/03/09 00:34:22;;;;;;;25.65;17.75;;;;;;;-2.65;100.00;96078.84;1015797;29;20024;-48
2021/03/09 00:34:53;;;;;;;25.58;17.45;;;;;;;-2.68;100.00;96074.63;1023741;29;20536;-47
2021/03/09 00:35:24;;;;;;;25.05;18.15;;;;;;;-2.68;100.00;96074.63;1015878;29;20032;-48
2021/03/09 00:35:55;;;;;;;21.14;16.18;;;;;;;-2.70;100.00;96071.22;1015606;29;20060;-49
2021/03/09 00:36:26;;;;;;;25.96;17.36;;;;;;;-2.70;100.00;96070.34;1015699;29;20027;-48
2021/03/09 00:36:57;;;;;;;25.90;18.13;;;;;;;-2.71;100.00;96074.66;1011889;29;20024;-49
2021/03/09 00:37:27;;;;;;;25.27;17.80;;;;;;;-2.71;100.00;96073.81;1008024;29;20029;-48
2021/03/09 00:37:58;;;;;;;23.35;16.08;;;;;;;-2.73;100.00;96071.25;1019577;29;20405;-46
2021/03/09 00:38:29;;;;;;;24.17;17.50;;;;;;;-2.74;100.00;96070.44;1019777;29;20028;-49
2021/03/09 00:39:00;;;;;;;23.70;17.10;;;;;;;-2.74;100.00;96072.13;1015778;29;20125;-49
2021/03/09 00:39:31;;;;;;;24.15;17.25;;;;;;;-2.76;100.00;96069.63;1015853;29;20147;-47
2021/03/09 00:40:02;;;;;;;24.96;17.10;;;;;;;-2.75;100.00;96066.16;1011752;29;20024;-50
2021/03/09 00:40:33;;;;;;;23.18;16.68;;;;;;;-2.78;100.00;96068.78;1019673;29;20067;-48
2021/03/09 00:41:04;;;;;;;24.38;16.58;;;;;;;-2.77;100.00;96070.47;1019723;29;20091;-48
2021/03/09 00:41:34;;;;;;;22.08;16.05;;;;;;;-2.79;100.00;96066.25;1015665;29;20040;-48
2021/03/09 00:42:06;;;;;;;21.25;16.05;;;;;;;-2.79;100.00;96069.66;1007880;29;20112;-50
2021/03/09 00:42:40;;;;;;;23.26;17.00;;;;;;;-2.80;100.00;96061.97;1011999;29;20031;-55
2021/03/09 00:43:11;;;;;;;23.90;17.12;;;;;;;-2.81;100.00;96065.44;1041678;23;20440;-51
2021/03/09 00:43:42;;;;;;;24.63;16.67;;;;;;;-2.84;100.00;96066.31;1022419;29;20560;-47
2021/03/09 00:44:13;;;;;;;22.15;17.00;;;;;;;-2.87;100.00;96065.50;1023603;29;20019;-47
2021/03/09 00:44:44;;;;;;;23.18;16.70;;;;;;;-2.84;100.00;96073.16;1015832;29;20490;-48
2021/03/09 00:45:15;;;;;;;24.42;17.50;;;;;;;-2.85;100.00;96069.75;1019496;29;20016;-48
2021/03/09 00:45:46;;;;;;;24.17;16.98;;;;;;;-2.85;100.00;96069.75;1015785;29;20091;-49
2021/03/09 00:46:17;;;;;;;23.35;16.80;;;;;;;-2.87;100.00;96063.81;1027675;28;20011;-48
2021/03/09 00:46:49;;;;;;;24.70;17.92;;;;;;;-2.86;100.00;96062.91;1019775;29;20011;-48
2021/03/09 00:47:20;;;;;;;22.92;16.88;;;;;;;-2.88;100.00;96067.22;1023612;29;20023;-49
2021/03/09 00:47:51;;;;;;;23.02;16.17;;;;;;;-2.87;100.00;96068.06;1019775;29;20016;-49
2021/03/09 00:48:22;;;;;;;21.02;15.30;;;;;;;-2.85;100.00;96061.19;1019880;28;20018;-49
2021/03/09 00:48:52;;;;;;;23.30;16.27;;;;;;;-2.85;100.00;96061.19;1023694;28;20102;-49
2021/03/09 00:49:23;;;;;;;24.50;18.00;;;;;;;-2.84;100.00;96068.03;1019741;29;20027;-48
2021/03/09 00:49:54;;;;;;;24.95;17.70;;;;;;;-2.86;100.00;96064.66;1019830;29;20082;-50
2021/03/09 00:50:25;;;;;;;24.66;16.68;;;;;;;-2.86;100.00;96064.66;1023671;28;20030;-49
2021/03/09 00:50:56;;;;;;;21.64;15.76;;;;;;;-2.88;100.00;96066.38;1011809;29;20402;-49
2021/03/09 00:51:27;;;;;;;23.92;16.65;;;;;;;-2.89;100.00;96060.44;1019572;29;20024;-48
2021/03/09 00:51:58;;;;;;;24.17;17.23;;;;;;;-2.90;100.00;96061.28;1019723;29;20055;-49
2021/03/09 00:52:28;;;;;;;23.58;16.52;;;;;;;-2.91;100.00;96059.56;1023621;29;20453;-47
2021/03/09 00:52:59;;;;;;;25.45;16.40;;;;;;;-2.90;100.00;96057.88;1019764;29;20120;-48
2021/03/09 00:53:30;;;;;;;23.85;16.95;;;;;;;-2.90;100.00;96055.31;1019410;28;20529;-48
2021/03/09 00:54:01;;;;;;;25.40;18.02;;;;;;;-2.90;100.00;96053.59;1015781;29;20028;-48
2021/03/09 00:54:31;;;;;;;22.45;16.17;;;;;;;-2.94;100.00;96055.34;1015765;29;20023;-49
2021/03/09 00:55:03;;;;;;;22.92;17.17;;;;;;;-2.94;100.00;96055.34;1015858;29;20067;-49
2021/03/09 00:55:33;;;;;;;23.42;16.12;;;;;;;-2.95;100.00;96052.81;1011755;29;20023;-49
2021/03/09 00:56:04;;;;;;;22.73;16.50;;;;;;;-2.94;100.00;96054.53;1008028;29;20119;-49
2021/03/09 00:56:35;;;;;;;20.83;16.65;;;;;;;-2.96;100.00;96048.56;1019713;29;20118;-49
2021/03/09 00:57:07;;;;;;;24.95;16.05;;;;;;;-2.95;100.00;96055.38;1011885;29;20035;-48
2021/03/09 00:57:37;;;;;;;25.10;16.68;;;;;;;-2.99;100.00;96049.44;1011771;29;20755;-48
2021/03/09 00:58:08;;;;;;;21.75;16.45;;;;;;;-2.98;100.00;96053.72;1011835;29;20020;-49
2021/03/09 00:58:39;;;;;;;22.45;15.82;;;;;;;-2.98;100.00;96053.72;1011917;29;20039;-47
2021/03/09 00:59:09;;;;;;;22.75;16.50;;;;;;;-2.96;100.00;96051.13;1015838;29;20020;-48
2021/03/09 00:59:40;;;;;;;21.52;15.55;;;;;;;-2.94;100.00;96054.53;1019575;29;20111;-49
2021/03/09 01:00:11;;;;;;;23.02;16.38;;;;;;;-2.97;100.00;96052.00;1015793;28;20020;-48
2021/03/09 01:00:42;;;;;;;21.36;16.12;;;;;;;-2.98;100.00;96048.59;1015809;29;20016;-50
2021/03/09 01:01:13;;;;;;;20.30;16.13;;;;;;;-3.00;100.00;96049.50;1015724;29;20056;-49
2021/03/09 01:01:43;;;;;;;22.52;15.60;;;;;;;-2.99;100.00;96048.59;1015685;29;20016;-49
2021/03/09 01:02:14;;;;;;;22.58;16.60;;;;;;;-2.97;100.00;96046.88;1015844;29;20382;-52
2021/03/09 01:02:45;;;;;;;23.20;16.52;;;;;;;-2.98;100.00;96048.59;1015805;29;20012;-49
2021/03/09 01:03:15;;;;;;;23.15;17.13;;;;;;;-2.98;100.00;96048.59;1015704;29;20048;-49
2021/03/09 01:03:46;;;;;;;22.52;17.52;;;;;;;-2.97;100.00;96050.25;1015457;29;20075;-50
2021/03/09 01:04:17;;;;;;;22.05;16.40;;;;;;;-2.97;100.00;96057.94;1015868;29;20020;-49
2021/03/09 01:04:47;;;;;;;23.55;16.48;;;;;;;-2.98;100.00;96040.06;1015770;29;20517;-48
2021/03/09 01:05:18;;;;;;;25.00;16.38;;;;;;;-2.97;100.00;96049.44;1015930;29;20099;-49
2021/03/09 01:05:49;;;;;;;24.38;17.48;;;;;;;-2.95;100.00;96045.13;1015616;29;20553;-48
2021/03/09 01:06:19;;;;;;;24.63;17.70;;;;;;;-2.96;100.00;96049.41;1019744;29;20027;-48
2021/03/09 01:06:50;;;;;;;21.80;16.05;;;;;;;-2.94;100.00;96046.81;1019866;29;20070;-48
2021/03/09 01:07:21;;;;;;;24.65;16.60;;;;;;;-2.95;100.00;96047.69;1015916;28;20024;-48
2021/03/09 01:07:52;;;;;;;22.70;16.65;;;;;;;-2.95;100.00;96056.25;1019881;29;20028;-48
2021/03/09 01:08:22;;;;;;;22.02;16.15;;;;;;;-2.93;100.00;96051.06;1019873;29;20104;-50
2021/03/09 01:08:53;;;;;;;20.15;15.85;;;;;;;-2.94;100.00;96050.22;1015848;29;20260;-48
2021/03/09 01:09:24;;;;;;;21.52;15.60;;;;;;;-2.98;100.00;96043.47;1015915;29;20028;-48
2021/03/09 01:09:54;;;;;;;25.92;15.88;;;;;;;-2.96;100.00;96048.56;1012073;29;20024;-51
2021/03/09 01:10:25;;;;;;;22.08;16.02;;;;;;;-2.96;100.00;96051.13;1012237;29;20036;-50
2021/03/09 01:10:56;;;;;;;25.23;16.88;;;;;;;-3.00;100.00;96042.66;1008106;29;20115;-49
2021/03/09 01:11:26;;;;;;;25.60;17.02;;;;;;;-2.98;100.00;96050.31;1019786;29;20118;-48
2021/03/09 01:11:57;;;;;;;24.00;15.38;;;;;;;-2.98;100.00;96050.31;1015611;29;20035;-50
2021/03/09 01:12:28;;;;;;;23.65;16.67;;;;;;;-3.00;100.00;96052.91;1011797;29;20056;-48
2021/03/09 01:12:59;;;;;;;23.90;17.30;;;;;;;-3.00;100.00;96052.06;1015719;29;20023;-51
2021/03/09 01:13:30;;;;;;;25.76;18.20;;;;;;;-3.01;100.00;96051.19;1019603;29;20055;-47
2021/03/09 01:14:00;;;;;;;21.58;16.50;;;;;;;-3.02;100.00;96048.66;1015618;29;20028;-49
2021/03/09 01:14:31;;;;;;;21.20;16.35;;;;;;;-3.03;100.00;96052.94;1015702;29;20422;-48
2021/03/09 01:15:03;;;;;;;23.02;16.60;;;;;;;-3.03;100.00;96052.09;1007991;29;20119;-49
2021/03/09 01:15:33;;;;;;;23.42;16.26;;;;;;;-3.05;100.00;96043.59;1007983;29;20036;-49
2021/03/09 01:16:05;;;;;;;25.55;17.02;;;;;;;-3.04;100.00;96048.69;1019702;29;20512;-48
2021/03/09 01:16:35;;;;;;;24.78;17.44;;;;;;;-3.03;100.00;96045.25;1015619;29;20028;-49
2021/03/09 01:17:06;;;;;;;25.95;18.08;;;;;;;-3.02;100.00;96049.50;1019632;29;20641;-48
2021/03/09 01:17:37;;;;;;;26.33;18.33;;;;;;;-3.04;100.00;96046.13;1019672;29;20028;-50
2021/03/09 01:18:08;;;;;;;23.92;17.83;;;;;;;-3.03;100.00;96044.41;1015804;29;20545;-48
2021/03/09 01:18:38;;;;;;;23.15;17.58;;;;;;;-3.01;100.00;96050.34;1011753;29;20029;-48
2021/03/09 01:19:09;;;;;;;25.42;18.05;;;;;;;-3.03;100.00;96046.97;1011794;29;20065;-49
2021/03/09 01:19:40;;;;;;;23.60;17.23;;;;;;;-3.03;100.00;96042.69;1019686;29;20024;-49
2021/03/09 01:20:11;;;;;;;24.70;17.60;;;;;;;-3.05;100.00;96047.00;1023556;28;20115;-49
2021/03/09 01:20:42;;;;;;;22.04;16.88;;;;;;;-3.06;100.00;96042.75;1019556;28;20340;-48
2021/03/09 01:21:13;;;;;;;23.23;16.98;;;;;;;-3.07;100.00;96048.72;1015787;29;20050;-50
2021/03/09 01:21:43;;;;;;;24.95;18.70;;;;;;;-3.06;100.00;96036.75;1011851;29;20132;-48
2021/03/09 01:22:14;;;;;;;28.55;20.08;;;;;;;-3.04;100.00;96042.69;1011848;29;20036;-50
2021/03/09 01:22:45;;;;;;;31.25;20.25;;;;;;;-3.01;100.00;96040.94;1019593;29;20024;-50
2021/03/09 01:23:15;;;;;;;24.48;18.08;;;;;;;-2.99;100.00;96043.47;1011804;29;20029;-48
2021/03/09 01:23:46;;;;;;;26.60;19.02;;;;;;;-3.02;100.00;96039.25;1015514;29;20036;-48
2021/03/09 01:24:17;;;;;;;26.63;19.73;;;;;;;-3.03;100.00;96042.69;1008275;29;20044;-51
2021/03/09 01:24:48;;;;;;;29.08;17.50;;;;;;;-3.05;100.00;96031.59;1020423;29;20061;-49
2021/03/09 01:25:18;;;;;;;26.77;17.65;;;;;;;-3.05;100.00;96039.31;1016663;29;20026;-48
2021/03/09 01:25:49;;;;;;;25.13;18.33;;;;;;;-3.06;100.00;96040.19;1020446;29;20106;-50
2021/03/09 01:26:20;;;;;;;26.25;18.23;;;;;;;-3.06;100.00;96032.50;1024367;29;20027;-48
2021/03/09 01:26:51;;;;;;;27.05;19.17;;;;;;;-3.07;100.00;96035.06;1020315;29;20112;-48
2021/03/09 01:27:22;;;;;;;26.34;18.52;;;;;;;-3.09;100.00;96040.22;1015284;29;20024;-48
2021/03/09 01:27:52;;;;;;;25.77;18.92;;;;;;;-3.09;100.00;96037.66;1012778;29;20145;-49
2021/03/09 01:28:23;;;;;;;25.58;17.75;;;;;;;-3.09;100.00;96036.81;1016619;29;20618;-48
2021/03/09 01:28:55;;;;;;;25.70;18.00;;;;;;;-3.10;100.00;96033.38;1016441;29;20498;-47
2021/03/09 01:29:25;;;;;;;26.30;17.95;;;;;;;-3.08;100.00;96033.38;1016488;29;20040;-50
2021/03/09 01:29:56;;;;;;;24.50;17.08;;;;;;;-3.11;100.00;96034.28;1012690;29;20045;-49
2021/03/09 01:30:27;;;;;;;26.95;18.63;;;;;;;-3.10;100.00;96030.81;1016683;29;20032;-48
2021/03/09 01:30:57;;;;;;;24.77;18.08;;;;;;;-3.09;100.00;96029.13;1020474;29;20052;-50
2021/03/09 01:31:28;;;;;;;28.85;17.45;;;;;;;-3.12;100.00;96027.44;1020732;29;20572;-49
2021/03/09 01:31:59;;;;;;;22.63;16.48;;;;;;;-3.13;100.00;96026.59;1016467;29;20126;-47
2021/03/09 01:32:29;;;;;;;22.25;16.38;;;;;;;-3.12;100.00;96027.44;1020439;29;20078;-51
2021/03/09 01:33:00;;;;;;;23.30;17.60;;;;;;;-3.14;100.00;96024.06;1020217;29;20122;-48
2021/03/09 01:33:31;;;;;;;24.20;18.33;;;;;;;-3.16;100.00;96020.69;1020323;29;20043;-49
2021/03/09 01:34:02;;;;;;;23.83;17.63;;;;;;;-3.15;100.00;96027.50;1024300;29;20108;-50
2021/03/09 01:34:32;;;;;;;24.05;17.80;;;;;;;-3.20;100.00;96017.31;1020409;29;20031;-49
2021/03/09 01:35:04;;;;;;;22.92;17.70;;;;;;;-3.16;100.00;96016.38;1020250;29;20055;-48
2021/03/09 01:35:34;;;;;;;25.80;18.46;;;;;;;-3.16;100.00;96020.69;1024302;28;20055;-48
2021/03/09 01:36:06;;;;;;;24.65;17.05;;;;;;;-3.16;100.00;96021.50;1028338;28;20034;-48
2021/03/09 01:36:37;;;;;;;25.76;18.22;;;;;;;-3.15;100.00;96022.38;1020399;29;20031;-48
2021/03/09 01:37:07;;;;;;;24.15;17.70;;;;;;;-3.16;100.00;96018.13;1024240;29;20023;-49
2021/03/09 01:37:38;;;;;;;26.33;18.67;;;;;;;-3.14;100.00;96024.06;1020416;29;20032;-49
2021/03/09 01:38:09;;;;;;;23.48;17.40;;;;;;;-3.14;100.00;96017.22;1024365;29;20370;-48
2021/03/09 01:38:39;;;;;;;25.85;17.83;;;;;;;-3.14;100.00;96016.38;1020352;28;20362;-48
2021/03/09 01:39:12;;;;;;;24.42;17.00;;;;;;;-3.15;100.00;96019.81;1020355;29;20031;-50
2021/03/09 01:39:43;;;;;;;24.70;18.00;;;;;;;-3.16;100.00;96013.81;1020357;29;20074;-48
2021/03/09 01:40:14;;;;;;;24.77;18.55;;;;;;;-3.18;100.00;96015.56;1020438;29;20024;-50
2021/03/09 01:40:44;;;;;;;27.08;18.55;;;;;;;-3.17;100.00;96017.28;1024354;29;20392;-49
2021/03/09 01:41:15;;;;;;;31.17;19.52;;;;;;;-3.18;100.00;96017.28;1024253;29;20023;-49
2021/03/09 01:41:46;;;;;;;24.02;17.77;;;;;;;-3.18;100.00;96017.28;1016449;29;20369;-49
2021/03/09 01:42:17;;;;;;;25.23;18.63;;;;;;;-3.18;100.00;96023.25;1016555;29;20496;-48
2021/03/09 01:42:47;;;;;;;26.17;17.83;;;;;;;-3.21;100.00;96007.09;1012404;29;20467;-47
2021/03/09 01:43:18;;;;;;;25.10;18.23;;;;;;;-3.17;100.00;96016.44;1016211;29;20024;-50
2021/03/09 01:43:49;;;;;;;25.67;17.73;;;;;;;-3.19;100.00;96013.03;1020233;29;20015;-48
2021/03/09 01:44:20;;;;;;;28.78;18.16;;;;;;;-3.17;100.00;96012.16;1020405;29;20096;-50
2021/03/09 01:44:50;;;;;;;25.48;18.23;;;;;;;-3.17;100.00;96022.41;1020388;29;20112;-49
2021/03/09 01:45:21;;;;;;;25.67;18.35;;;;;;;-3.18;100.00;96017.28;1020272;29;20015;-48
2021/03/09 01:45:52;;;;;;;27.17;18.83;;;;;;;-3.20;100.00;96019.88;1016358;29;20012;-50
2021/03/09 01:46:23;;;;;;;24.77;18.23;;;;;;;-3.19;100.00;96015.59;1016429;29;20028;-49
2021/03/09 01:46:54;;;;;;;26.13;19.65;;;;;;;-3.20;100.00;96008.78;1020355;29;20020;-49
2021/03/09 01:47:25;;;;;;;24.38;18.50;;;;;;;-3.21;100.00;96010.50;1020360;29;20019;-51
2021/03/09 01:48:00;;;;;;;31.42;20.58;;;;;;;-3.17;100.00;96016.44;1016426;29;20021;-49
2021/03/09 01:48:40;;;;;;;25.78;17.98;;;;;;;-3.18;100.00;96014.72;1016371;29;20497;-49
2021/03/09 01:49:11;;;;;;;32.40;19.77;;;;;;;-3.18;100.00;96007.88;1016544;29;20042;-49
2021/03/09 01:49:41;;;;;;;26.70;18.50;;;;;;;-3.17;100.00;96003.63;1020271;29;20482;-49
2021/03/09 01:50:13;;;;;;;27.73;19.05;;;;;;;-3.19;100.00;96011.34;1016495;29;20023;-50
2021/03/09 01:50:44;;;;;;;28.90;19.48;;;;;;;-3.21;100.00;96010.50;1028259;28;20613;-49
2021/03/09 01:51:16;;;;;;;28.26;19.34;;;;;;;-3.21;100.00;96015.63;1016394;29;20012;-48
2021/03/09 01:51:48;;;;;;;27.50;18.98;;;;;;;-3.21;100.00;96010.50;1016367;29;20008;-49
2021/03/09 01:52:19;;;;;;;26.26;18.26;;;;;;;-3.24;100.00;96005.44;1020250;29;20513;-49
2021/03/09 01:52:49;;;;;;;26.20;19.35;;;;;;;-3.23;100.00;96012.25;1012388;29;20107;-48
2021/03/09 01:53:20;;;;;;;27.15;19.08;;;;;;;-3.24;100.00;96002.88;1020329;29;20011;-49
2021/03/09 01:53:51;;;;;;;27.22;19.12;;;;;;;-3.25;100.00;96002.88;1016127;29;20098;-49
2021/03/09 01:54:22;;;;;;;26.67;18.40;;;;;;;-3.23;100.00;96008.81;1012541;29;20088;-48
2021/03/09 01:54:52;;;;;;;27.70;18.88;;;;;;;-3.22;100.00;96005.41;1024281;29;20040;-50
2021/03/09 01:55:23;;;;;;;25.60;18.15;;;;;;;-3.21;100.00;96001.97;1016423;29;20477;-48
2021/03/09 01:55:55;;;;;;;28.33;18.13;;;;;;;-3.20;100.00;96001.09;1020247;29;20508;-49
2021/03/09 01:56:26;;;;;;;27.52;18.94;;;;;;;-3.22;100.00;95998.56;1020306;29;20115;-49
2021/03/09 01:56:57;;;;;;;25.70;17.88;;;;;;;-3.22;100.00;96000.28;1020439;29;20015;-48
2021/03/09 01:57:28;;;;;;;27.73;19.25;;;;;;;-3.27;100.00;95992.66;1016372;29;20030;-49
2021/03/09 01:58:02;;;;;;;27.40;18.80;;;;;;;-3.26;100.00;95994.34;1012489;29;20021;-49
2021/03/09 01:58:33;;;;;;;25.22;17.94;;;;;;;-3.26;100.00;95993.53;1016384;29;20024;-49
2021/03/09 01:59:04;;;;;;;26.73;18.30;;;;;;;-3.24;100.00;95991.78;1024228;29;20070;-49
2021/03/09 01:59:36;;;;;;;28.35;18.73;;;;;;;-3.24;100.00;95991.78;1020373;29;20016;-50
2021/03/09 02:00:07;;;;;;;25.10;18.50;;;;;;;-3.26;100.00;95996.09;1016230;29;20397;-50
2021/03/09 02:00:39;;;;;;;28.70;18.74;;;;;;;-3.27;100.00;95989.25;1024208;29;20018;-49
2021/03/09 02:01:10;;;;;;;28.30;18.46;;;;;;;-3.27;100.00;95989.25;1020288;29;20071;-49
2021/03/09 02:01:40;;;;;;;27.10;18.02;;;;;;;-3.26;100.00;95990.97;1016367;29;20016;-49
2021/03/09 02:02:12;;;;;;;27.60;18.42;;;;;;;-3.25;100.00;95985.78;1012393;29;20031;-49
2021/03/09 02:02:42;;;;;;;28.06;20.36;;;;;;;-3.24;100.00;95996.91;1012456;29;20024;-47
2021/03/09 02:03:13;;;;;;;25.73;19.17;;;;;;;-3.23;100.00;95996.00;1012364;29;20040;-50
2021/03/09 02:03:44;;;;;;;25.20;18.80;;;;;;;-3.23;100.00;95988.31;1024139;29;20026;-48
2021/03/09 02:04:14;;;;;;;25.40;18.04;;;;;;;-3.21;100.00;95990.00;1020194;29;20449;-51
2021/03/09 02:04:45;;;;;;;29.77;19.58;;;;;;;-3.21;100.00;95987.47;1012496;29;20045;-49
2021/03/09 02:05:16;;;;;;;29.05;20.27;;;;;;;-3.20;100.00;95985.72;1016318;29;20031;-48
2021/03/09 02:05:47;;;;;;;27.70;18.98;;;;;;;-3.21;100.00;95996.84;1024191;29;20031;-51
2021/03/09 02:06:18;;;;;;;25.95;18.52;;;;;;;-3.24;100.00;95994.34;1020142;29;20015;-48
2021/03/09 02:06:48;;;;;;;26.90;19.20;;;;;;;-3.24;100.00;95995.19;1016329;29;20497;-49
2021/03/09 02:07:19;;;;;;;27.42;19.65;;;;;;;-3.22;100.00;95990.03;1024243;29;20050;-51
2021/03/09 02:07:50;;;;;;;26.10;18.67;;;;;;;-3.23;100.00;95988.31;1020339;29;20027;-49
2021/03/09 02:08:20;;;;;;;26.48;18.83;;;;;;;-3.19;100.00;95997.66;1020261;28;20106;-49
2021/03/09 02:08:51;;;;;;;32.70;20.27;;;;;;;-3.20;100.00;95988.28;1028197;28;20153;-51
2021/03/09 02:09:22;;;;;;;27.77;20.65;;;;;;;-3.18;100.00;95994.25;1020252;29;20034;-49
2021/03/09 02:09:53;;;;;;;26.13;19.20;;;;;;;-3.16;100.00;95995.06;1016339;29;20083;-49
2021/03/09 02:10:23;;;;;;;27.38;19.63;;;;;;;-3.16;100.00;95997.63;1020175;28;20028;-49
2021/03/09 02:10:54;;;;;;;27.80;19.95;;;;;;;-3.15;100.00;95987.34;1020349;29;20024;-49
2021/03/09 02:11:36;;;;;;;25.48;18.70;;;;;;;-3.16;100.00;95990.75;1020461;29;20032;-48
2021/03/09 02:12:22;;;;;;;29.18;19.70;;;;;;;-3.13;100.00;95984.75;1012424;29;20076;-50
2021/03/09 02:13:01;;;;;;;28.80;19.44;;;;;;;-3.16;100.00;95982.25;1020094;29;20024;-48
2021/03/09 02:13:36;;;;;;;27.46;19.42;;;;;;;-3.17;100.00;95983.97;1020084;29;20520;-49
2021/03/09 02:14:19;;;;;;;29.70;20.76;;;;;;;-3.17;100.00;95983.13;1020410;29;20020;-47
2021/03/09 02:15:07;;;;;;;28.16;20.78;;;;;;;-3.11;100.00;95982.19;1016262;29;20028;-49
2021/03/09 02:15:49;;;;;;;27.48;19.98;;;;;;;-3.11;100.00;95988.16;1012494;29;20446;-49
2021/03/09 02:16:24;;;;;;;30.06;19.16;;;;;;;-3.11;100.00;95982.19;1017591;29;20027;-49
2021/03/09 02:17:15;;;;;;;28.38;19.58;;;;;;;-3.11;100.00;95985.59;1020119;29;20370;-49
2021/03/09 02:17:48;;;;;;;;;;;;;;;-3.13;100.00;95984.75;1020741;29;20023;-50
2021/03/09 02:18:24;;;;;;;29.54;19.82;;;;;;;-3.11;100.00;95982.19;1020234;29;19911;-48
2021/03/09 02:19:09;;;;;;;33.12;20.04;;;;;;;-3.14;100.00;95986.47;1023915;29;20081;-48
2021/03/09 02:19:59;;;;;;;29.94;21.06;;;;;;;-3.16;100.00;95982.25;1020201;29;20429;-49
2021/03/09 02:20:54;;;;;;;30.95;20.08;;;;;;;-3.18;100.00;95981.44;1012446;29;20028;-51
2021/03/09 02:21:44;;;;;;;26.56;19.30;;;;;;;-3.20;100.00;95980.59;1022058;29;20028;-48
2021/03/09 02:22:28;;;;;;;30.65;19.45;;;;;;;-3.22;100.00;95980.63;1022113;29;20485;-50
2021/03/09 02:23:18;;;;;;;28.16;18.58;;;;;;;-3.24;100.00;95976.41;1019991;29;20484;-49
2021/03/09 02:24:02;;;;;;;31.27;22.13;;;;;;;-3.26;100.00;95973.84;1016918;29;20020;-49
2021/03/09 02:24:50;;;;;;;34.36;22.48;;;;;;;-3.27;100.00;95977.28;1020253;29;20028;-49